createdAt,value
2022-10-24T00:01:13.252Z,15.64
2022-10-24T00:03:39.808Z,15.61
2022-10-24T00:06:08.147Z,15.66
2022-10-24T00:08:36.530Z,15.67
2022-10-24T00:11:09.232Z,15.64
2022-10-24T00:13:35.748Z,15.69
2022-10-24T00:16:02.293Z,15.63
2022-10-24T00:18:29.165Z,15.60
2022-10-24T00:20:56.108Z,15.61
2022-10-24T00:23:22.681Z,15.58
2022-10-24T00:25:49.210Z,15.54
2022-10-24T00:28:15.718Z,15.50
2022-10-24T00:30:42.249Z,15.44
2022-10-24T00:33:08.837Z,15.39
2022-10-24T00:35:35.563Z,15.39
2022-10-24T00:38:02.090Z,15.45
2022-10-24T00:40:28.823Z,15.38
2022-10-24T00:42:55.323Z,15.39
2022-10-24T00:46:03.990Z,15.37
2022-10-24T00:48:41.755Z,15.35
2022-10-24T00:51:16.407Z,15.41
2022-10-24T00:53:47.683Z,15.39
2022-10-24T00:56:16.894Z,15.46
2022-10-24T00:58:45.069Z,15.51
2022-10-24T01:01:13.198Z,15.51
2022-10-24T01:03:40.059Z,15.46
2022-10-24T01:06:18.573Z,15.49
2022-10-24T01:09:06.347Z,15.40
2022-10-24T01:11:51.088Z,15.27
2022-10-24T01:14:50.579Z,15.19
2022-10-24T01:17:41.826Z,15.16
2022-10-24T01:20:28.751Z,15.07
2022-10-24T01:23:07.061Z,15.06
2022-10-24T01:25:38.528Z,15.04
2022-10-24T01:28:11.447Z,14.98
2022-10-24T01:30:55.854Z,14.99
2022-10-24T01:33:33.053Z,14.96
2022-10-24T01:36:13.697Z,14.85
2022-10-24T01:38:51.342Z,14.85
2022-10-24T01:41:21.522Z,14.86
2022-10-24T01:43:56.622Z,14.85
2022-10-24T01:46:27.720Z,14.85
2022-10-24T01:49:13.931Z,14.84
2022-10-24T01:51:41.886Z,14.81
2022-10-24T01:54:10.723Z,14.86
2022-10-24T01:56:37.348Z,14.85
2022-10-24T01:59:09.371Z,14.88
2022-10-24T02:01:39.052Z,14.92
2022-10-24T02:04:10.896Z,14.93
2022-10-24T02:06:41.619Z,14.97
2022-10-24T02:09:17.788Z,14.95
2022-10-24T02:11:47.835Z,14.96
2022-10-24T02:14:21.230Z,14.91
2022-10-24T02:16:48.000Z,14.94
2022-10-24T02:19:15.151Z,14.96
2022-10-24T02:22:09.690Z,14.97
2022-10-24T02:24:42.525Z,14.98
2022-10-24T02:27:31.132Z,15.03
2022-10-24T02:30:20.322Z,15.04
2022-10-24T02:32:59.008Z,14.97
2022-10-24T02:35:31.172Z,15.11
2022-10-24T02:38:04.632Z,15.03
2022-10-24T02:40:32.099Z,15.13
2022-10-24T02:43:00.354Z,15.16
2022-10-24T02:45:28.800Z,15.07
2022-10-24T02:48:00.149Z,15.17
2022-10-24T02:50:27.150Z,15.25
2022-10-24T02:52:53.698Z,15.28
2022-10-24T02:55:20.283Z,15.25
2022-10-24T02:57:46.820Z,15.14
2022-10-24T03:00:13.938Z,15.06
2022-10-24T03:02:40.535Z,15.11
2022-10-24T03:05:07.363Z,15.08
2022-10-24T03:07:33.959Z,15.05
2022-10-24T03:10:00.644Z,15.11
2022-10-24T03:12:27.284Z,15.11
2022-10-24T03:14:53.857Z,15.13
2022-10-24T03:17:21.858Z,15.08
2022-10-24T03:19:48.377Z,15.05
2022-10-24T03:22:15.243Z,15.07
2022-10-24T03:24:55.220Z,15.01
2022-10-24T03:27:22.560Z,15.06
2022-10-24T03:29:49.090Z,15.02
2022-10-24T03:32:15.718Z,14.99
2022-10-24T03:34:42.409Z,14.97
2022-10-24T03:37:08.905Z,15.02
2022-10-24T03:39:35.521Z,14.96
2022-10-24T03:42:02.425Z,14.98
2022-10-24T03:44:29.063Z,14.87
2022-10-24T03:46:55.639Z,14.85
2022-10-24T03:49:22.471Z,14.83
2022-10-24T03:51:49.013Z,14.78
2022-10-24T03:54:15.625Z,14.74
2022-10-24T03:56:45.885Z,14.67
2022-10-24T03:59:12.401Z,14.63
2022-10-24T04:01:39.081Z,14.59
2022-10-24T04:04:06.046Z,14.52
2022-10-24T04:06:35.593Z,14.47
2022-10-24T04:09:03.745Z,14.42
2022-10-24T04:11:30.475Z,14.39
2022-10-24T04:13:57.114Z,14.28
2022-10-24T04:16:24.140Z,14.30
2022-10-24T04:18:51.432Z,14.23
2022-10-24T04:21:21.592Z,14.18
2022-10-24T04:23:48.949Z,14.11
2022-10-24T04:26:16.888Z,14.05
2022-10-24T04:28:43.996Z,14.01
2022-10-24T04:31:10.512Z,14.02
2022-10-24T04:33:37.134Z,14.02
2022-10-24T04:36:04.027Z,14.05
2022-10-24T04:38:33.564Z,14.00
2022-10-24T04:41:01.005Z,13.88
2022-10-24T04:43:27.893Z,13.89
2022-10-24T04:45:54.435Z,13.85
2022-10-24T04:48:21.177Z,13.87
2022-10-24T04:50:48.337Z,13.80
2022-10-24T04:53:15.487Z,13.78
2022-10-24T04:55:42.281Z,13.85
2022-10-24T04:58:08.804Z,13.88
2022-10-24T05:00:35.382Z,13.97
2022-10-24T05:03:01.969Z,13.95
2022-10-24T05:05:28.566Z,13.98
2022-10-24T05:07:55.277Z,14.03
2022-10-24T05:10:21.921Z,14.06
2022-10-24T05:12:48.569Z,14.18
2022-10-24T05:15:15.273Z,14.23
2022-10-24T05:17:42.278Z,14.32
2022-10-24T05:20:09.450Z,14.41
2022-10-24T05:22:36.211Z,14.41
2022-10-24T05:25:03.109Z,14.42
2022-10-24T05:27:29.616Z,14.34
2022-10-24T05:29:56.271Z,14.33
2022-10-24T05:32:24.312Z,14.31
2022-10-24T05:34:51.107Z,14.30
2022-10-24T05:37:17.960Z,14.32
2022-10-24T05:39:44.657Z,14.29
2022-10-24T05:42:11.262Z,14.22
2022-10-24T05:44:38.263Z,14.11
2022-10-24T05:47:04.889Z,14.07
2022-10-24T05:49:31.532Z,14.03
2022-10-24T05:51:58.126Z,14.01
2022-10-24T05:54:30.098Z,13.98
2022-10-24T05:57:04.228Z,13.97
2022-10-24T05:59:30.917Z,13.93
2022-10-24T06:01:57.611Z,14.00
2022-10-24T06:04:24.232Z,14.03
2022-10-24T06:06:50.905Z,14.05
2022-10-24T06:09:17.469Z,14.05
2022-10-24T06:11:44.221Z,14.04
2022-10-24T06:14:11.266Z,14.07
2022-10-24T06:16:37.891Z,14.06
2022-10-24T06:19:04.418Z,14.07
2022-10-24T06:21:31.313Z,14.10
2022-10-24T06:23:57.949Z,14.14
2022-10-24T06:26:24.767Z,14.17
2022-10-24T06:28:51.684Z,14.21
2022-10-24T06:31:20.478Z,14.27
2022-10-24T06:33:47.467Z,14.34
2022-10-24T06:36:14.556Z,14.39
2022-10-24T06:38:41.377Z,14.45
2022-10-24T06:41:10.041Z,14.47
2022-10-24T06:43:37.740Z,14.48
2022-10-24T06:46:08.852Z,14.38
2022-10-24T06:48:36.258Z,14.52
2022-10-24T06:51:03.171Z,14.55
2022-10-24T06:53:29.862Z,14.55
2022-10-24T06:56:00.552Z,14.58
2022-10-24T06:58:31.594Z,14.58
2022-10-24T07:00:58.539Z,14.63
2022-10-24T07:03:25.451Z,14.64
2022-10-24T07:05:52.043Z,14.67
2022-10-24T07:08:19.738Z,14.64
2022-10-24T07:10:46.378Z,14.69
2022-10-24T07:13:12.971Z,14.70
2022-10-24T07:15:39.531Z,14.71
2022-10-24T07:18:06.051Z,14.73
2022-10-24T07:20:32.614Z,14.79
2022-10-24T07:22:59.159Z,14.79
2022-10-24T07:25:25.647Z,14.80
2022-10-24T07:27:54.744Z,14.79
2022-10-24T07:30:21.513Z,14.85
2022-10-24T07:32:48.810Z,14.79
2022-10-24T07:35:15.490Z,14.86
2022-10-24T07:37:42.184Z,14.94
2022-10-24T07:40:09.487Z,15.00
2022-10-24T07:42:36.038Z,15.03
2022-10-24T07:45:03.394Z,15.10
2022-10-24T07:47:30.251Z,15.11
2022-10-24T07:49:57.085Z,15.11
2022-10-24T07:52:23.822Z,15.12
2022-10-24T07:54:53.246Z,15.09
2022-10-24T07:57:20.370Z,15.05
2022-10-24T07:59:46.897Z,15.07
2022-10-24T08:02:14.765Z,15.08
2022-10-24T08:04:41.686Z,15.03
2022-10-24T08:07:13.298Z,15.11
2022-10-24T08:09:45.513Z,15.09
2022-10-24T08:12:12.055Z,15.17
2022-10-24T08:14:41.315Z,15.22
2022-10-24T08:17:08.161Z,15.18
2022-10-24T08:19:35.171Z,15.18
2022-10-24T08:22:02.397Z,15.18
2022-10-24T08:24:29.284Z,15.24
2022-10-24T08:26:58.561Z,15.39
2022-10-24T08:29:25.517Z,15.45
2022-10-24T08:31:53.776Z,15.53
2022-10-24T08:34:21.107Z,15.34
2022-10-24T08:36:48.697Z,15.35
2022-10-24T08:39:16.109Z,15.22
2022-10-24T08:41:46.883Z,15.40
2022-10-24T08:44:41.318Z,15.44
2022-10-24T08:47:32.684Z,15.34
2022-10-24T08:50:17.443Z,15.40
2022-10-24T08:52:49.366Z,15.35
2022-10-24T08:55:48.224Z,15.31
2022-10-24T08:58:20.026Z,15.33
2022-10-24T09:00:50.642Z,15.26
2022-10-24T09:03:51.119Z,15.22
2022-10-24T09:06:20.996Z,15.19
2022-10-24T09:08:52.549Z,15.14
2022-10-24T09:11:30.122Z,15.14
2022-10-24T09:13:57.829Z,15.12
2022-10-24T09:16:24.931Z,15.05
2022-10-24T09:18:54.369Z,15.05
2022-10-24T09:21:22.586Z,15.08
2022-10-24T09:23:50.730Z,15.07
2022-10-24T09:26:32.746Z,15.06
2022-10-24T09:28:59.415Z,15.04
2022-10-24T09:31:27.242Z,14.96
2022-10-24T09:33:56.702Z,15.01
2022-10-24T09:36:25.101Z,15.04
2022-10-24T09:38:51.958Z,15.10
2022-10-24T09:41:29.347Z,15.12
2022-10-24T09:43:58.702Z,15.17
2022-10-24T09:46:46.108Z,15.06
2022-10-24T09:49:12.570Z,15.16
2022-10-24T09:52:00.509Z,15.20
2022-10-24T09:54:30.420Z,15.25
2022-10-24T09:57:12.387Z,15.28
2022-10-24T09:59:44.208Z,15.20
2022-10-24T10:02:10.857Z,15.16
2022-10-24T10:04:38.890Z,15.10
2022-10-24T10:07:14.577Z,15.16
2022-10-24T10:09:54.107Z,15.12
2022-10-24T10:12:33.979Z,15.17
2022-10-24T10:15:27.101Z,15.16
2022-10-24T10:17:56.454Z,15.12
2022-10-24T10:20:28.112Z,15.06
2022-10-24T10:22:54.663Z,15.09
2022-10-24T10:25:31.900Z,15.05
2022-10-24T10:28:02.292Z,15.02
2022-10-24T10:30:29.731Z,14.86
2022-10-24T10:33:29.760Z,14.96
2022-10-24T10:36:14.985Z,14.87
2022-10-24T10:38:59.129Z,14.82
2022-10-24T10:41:42.176Z,14.75
2022-10-24T10:44:22.667Z,14.76
2022-10-24T10:47:14.299Z,14.74
2022-10-24T10:49:42.012Z,14.84
2022-10-24T10:52:29.872Z,14.92
2022-10-24T10:55:31.877Z,14.99
2022-10-24T10:58:23.408Z,15.03
2022-10-24T11:01:00.769Z,15.11
2022-10-24T11:04:06.135Z,15.19
2022-10-24T11:07:09.873Z,15.41
2022-10-24T11:09:59.352Z,15.42
2022-10-24T11:12:32.714Z,15.49
2022-10-24T11:15:08.348Z,15.59
2022-10-24T11:17:59.081Z,15.86
2022-10-24T11:20:31.893Z,15.81
2022-10-24T11:23:10.558Z,15.68
2022-10-24T11:25:44.535Z,15.80
2022-10-24T11:28:27.006Z,16.05
2022-10-24T11:31:00.895Z,16.11
2022-10-24T11:33:33.993Z,16.27
2022-10-24T11:36:14.696Z,16.22
2022-10-24T11:38:48.397Z,15.91
2022-10-24T11:41:23.884Z,15.86
2022-10-24T11:43:55.126Z,15.89
2022-10-24T11:46:36.542Z,15.94
2022-10-24T11:49:33.063Z,15.91
2022-10-24T11:52:12.705Z,15.82
2022-10-24T11:54:51.218Z,15.78
2022-10-24T11:57:25.778Z,15.85
2022-10-24T11:59:53.895Z,15.91
2022-10-24T12:02:26.779Z,15.91
2022-10-24T12:05:08.709Z,15.94
2022-10-24T12:08:00.853Z,15.87
2022-10-24T12:10:57.244Z,15.96
2022-10-24T12:13:40.030Z,15.95
2022-10-24T12:16:39.663Z,15.75
2022-10-24T12:19:12.905Z,15.70
2022-10-24T12:21:45.566Z,15.68
2022-10-24T12:24:41.690Z,15.63
2022-10-24T12:27:19.582Z,15.37
2022-10-24T12:29:59.689Z,15.35
2022-10-24T12:32:47.570Z,15.41
2022-10-24T12:35:31.322Z,15.34
2022-10-24T12:37:58.823Z,15.34
2022-10-24T12:40:46.578Z,15.29
2022-10-24T12:43:39.231Z,15.21
2022-10-24T12:46:15.875Z,15.20
2022-10-24T12:49:00.710Z,15.13
2022-10-24T12:51:31.803Z,15.10
2022-10-24T12:54:00.993Z,14.97
2022-10-24T12:56:28.434Z,14.88
2022-10-24T12:58:59.183Z,14.98
2022-10-24T13:01:35.402Z,14.99
2022-10-24T13:04:17.958Z,14.85
2022-10-24T13:07:13.174Z,14.97
2022-10-24T13:10:17.055Z,14.86
2022-10-24T13:13:01.759Z,14.87
2022-10-24T13:15:31.598Z,14.92
2022-10-24T13:18:12.964Z,14.86
2022-10-24T13:20:43.040Z,14.88
2022-10-24T13:23:28.611Z,14.89
2022-10-24T13:25:57.340Z,14.87
2022-10-24T13:28:23.874Z,15.02
2022-10-24T13:30:53.342Z,15.26
2022-10-24T13:33:37.916Z,15.50
2022-10-24T13:36:14.809Z,15.83
2022-10-24T13:38:46.917Z,16.08
2022-10-24T13:41:22.976Z,16.28
2022-10-24T13:43:53.103Z,16.24
2022-10-24T13:46:35.270Z,16.16
2022-10-24T13:49:03.188Z,16.30
2022-10-24T13:51:52.563Z,16.39
2022-10-24T13:54:26.114Z,16.10
2022-10-24T13:56:55.952Z,16.29
2022-10-24T13:59:33.505Z,16.38
2022-10-24T14:02:04.941Z,17.10
2022-10-24T14:04:32.396Z,17.43
2022-10-24T14:07:07.107Z,17.55
2022-10-24T14:09:42.466Z,17.51
2022-10-24T14:12:20.223Z,17.10
2022-10-24T14:14:49.658Z,16.99
2022-10-24T14:17:22.916Z,16.74
2022-10-24T14:19:55.527Z,16.72
2022-10-24T14:22:42.708Z,16.72
2022-10-24T14:25:44.706Z,16.99
2022-10-24T14:28:16.734Z,16.70
2022-10-24T14:30:56.530Z,16.58
2022-10-24T14:33:28.692Z,16.61
2022-10-24T14:35:58.457Z,16.48
2022-10-24T14:38:27.136Z,16.48
2022-10-24T14:41:06.657Z,16.67
2022-10-24T14:43:40.031Z,16.99
2022-10-24T14:46:12.699Z,17.11
2022-10-24T14:48:42.198Z,17.40
2022-10-24T14:51:16.694Z,17.49
2022-10-24T14:53:45.275Z,17.34
2022-10-24T14:56:29.503Z,17.05
2022-10-24T14:58:58.468Z,16.76
2022-10-24T15:01:25.817Z,16.68
2022-10-24T15:04:01.269Z,16.80
2022-10-24T15:06:41.779Z,16.95
2022-10-24T15:09:11.271Z,17.35
2022-10-24T15:11:47.786Z,17.24
2022-10-24T15:14:36.009Z,17.30
2022-10-24T15:17:18.878Z,17.01
2022-10-24T15:19:47.673Z,16.99
2022-10-24T15:22:35.780Z,17.90
2022-10-24T15:25:07.999Z,18.68
2022-10-24T15:27:43.922Z,18.91
2022-10-24T15:36:07.303Z,17.86
2022-10-24T15:38:36.629Z,17.35
2022-10-24T15:41:07.079Z,17.03
2022-10-24T15:43:34.810Z,16.67
2022-10-24T15:46:01.389Z,16.30
2022-10-24T15:48:27.935Z,15.89
2022-10-24T15:50:54.480Z,15.57
2022-10-24T15:53:21.938Z,15.32
2022-10-24T15:55:48.814Z,15.16
2022-10-24T15:58:17.276Z,15.00
2022-10-24T16:00:44.338Z,14.95
2022-10-24T16:03:17.395Z,14.95
2022-10-24T16:05:48.900Z,14.95
2022-10-24T16:08:18.918Z,14.88
2022-10-24T16:10:47.954Z,14.84
2022-10-24T16:13:15.147Z,14.67
2022-10-24T16:15:42.809Z,14.37
2022-10-24T16:18:10.563Z,14.28
2022-10-24T16:20:37.856Z,14.10
2022-10-24T16:23:05.539Z,14.13
2022-10-24T16:25:34.993Z,14.04
2022-10-24T16:28:02.126Z,13.83
2022-10-24T16:30:30.886Z,13.66
2022-10-24T16:32:57.526Z,13.49
2022-10-24T16:35:29.575Z,13.45
2022-10-24T16:37:58.177Z,13.36
2022-10-24T16:40:26.973Z,13.31
2022-10-24T16:42:55.572Z,13.17
2022-10-24T16:45:22.886Z,13.10
2022-10-24T16:47:50.074Z,12.96
2022-10-24T16:50:24.361Z,12.94
2022-10-24T16:52:56.008Z,12.96
2022-10-24T16:55:23.397Z,12.87
2022-10-24T16:57:50.383Z,12.89
2022-10-24T17:00:18.939Z,12.85
2022-10-24T17:02:48.498Z,12.76
2022-10-24T17:05:15.961Z,12.73
2022-10-24T17:07:43.287Z,12.67
2022-10-24T17:10:11.791Z,12.56
2022-10-24T17:12:40.957Z,12.43
2022-10-24T17:15:08.601Z,12.38
2022-10-24T17:17:35.359Z,12.34
2022-10-24T17:20:03.051Z,12.29
2022-10-24T17:22:29.798Z,12.22
2022-10-24T17:24:56.817Z,12.19
2022-10-24T17:27:24.138Z,12.11
2022-10-24T17:29:51.026Z,12.08
2022-10-24T17:32:17.870Z,12.04
2022-10-24T17:34:49.975Z,11.99
2022-10-24T17:37:24.697Z,11.94
2022-10-24T17:40:22.620Z,11.93
2022-10-24T17:42:49.753Z,11.96
2022-10-24T17:45:23.367Z,11.89
2022-10-24T17:47:50.053Z,11.87
2022-10-24T17:50:17.770Z,11.86
2022-10-24T17:52:50.286Z,11.84
2022-10-24T17:55:41.416Z,11.83
2022-10-24T17:58:08.988Z,11.81
2022-10-24T18:00:35.918Z,11.76
2022-10-24T18:03:02.973Z,11.64
2022-10-24T18:05:30.079Z,11.53
2022-10-24T18:07:57.914Z,11.51
2022-10-24T18:10:24.497Z,11.52
2022-10-24T18:12:51.406Z,11.48
2022-10-24T18:15:21.342Z,11.60
2022-10-24T18:17:48.648Z,11.66
2022-10-24T18:20:16.011Z,11.70
2022-10-24T18:22:44.184Z,11.77
2022-10-24T18:25:13.302Z,11.82
2022-10-24T18:27:40.997Z,11.86
2022-10-24T18:30:08.438Z,11.83
2022-10-24T18:32:35.279Z,11.90
2022-10-24T18:35:02.134Z,11.90
2022-10-24T18:37:29.670Z,11.92
2022-10-24T18:39:56.453Z,11.87
2022-10-24T18:42:48.335Z,12.00
2022-10-24T18:45:21.480Z,12.02
2022-10-24T18:47:49.569Z,11.93
2022-10-24T18:50:19.710Z,11.75
2022-10-24T18:52:49.814Z,11.76
2022-10-24T18:55:26.324Z,11.57
2022-10-24T18:57:53.350Z,11.49
2022-10-24T19:00:25.938Z,11.43
2022-10-24T19:03:01.394Z,11.31
2022-10-24T19:05:52.015Z,11.26
2022-10-24T19:08:23.709Z,11.26
2022-10-24T19:10:55.977Z,11.17
2022-10-24T19:13:24.528Z,11.04
2022-10-24T19:16:00.232Z,11.04
2022-10-24T19:18:30.459Z,10.95
2022-10-24T19:20:57.047Z,10.91
2022-10-24T19:23:24.768Z,10.84
2022-10-24T19:25:51.888Z,10.83
2022-10-24T19:28:19.903Z,10.75
2022-10-24T19:30:48.051Z,10.73
2022-10-24T19:33:16.429Z,10.74
2022-10-24T19:35:47.666Z,10.67
2022-10-24T19:38:18.149Z,10.66
2022-10-24T19:40:46.457Z,10.62
2022-10-24T19:43:13.830Z,10.66
2022-10-24T19:45:49.951Z,10.57
2022-10-24T19:48:22.590Z,10.55
2022-10-24T19:50:50.277Z,10.58
2022-10-24T19:53:16.939Z,10.60
2022-10-24T19:55:43.736Z,10.61
2022-10-24T19:58:12.687Z,10.63
2022-10-24T20:00:39.944Z,10.60
2022-10-24T20:03:06.696Z,10.52
2022-10-24T20:05:33.568Z,10.43
2022-10-24T20:08:00.097Z,10.44
2022-10-24T20:10:26.621Z,10.55
2022-10-24T20:12:53.175Z,10.62
2022-10-24T20:15:19.912Z,10.69
2022-10-24T20:17:46.837Z,10.90
2022-10-24T20:20:13.501Z,10.99
2022-10-24T20:22:40.039Z,11.06
2022-10-24T20:25:07.659Z,11.06
2022-10-24T20:27:34.250Z,11.16
2022-10-24T20:30:00.788Z,11.23
2022-10-24T20:32:27.287Z,11.25
2022-10-24T20:34:53.818Z,11.40
2022-10-24T20:37:20.314Z,11.49
2022-10-24T20:39:46.923Z,11.64
2022-10-24T20:42:13.497Z,11.78
2022-10-24T20:44:39.993Z,11.90
2022-10-24T20:47:06.508Z,12.02
2022-10-24T20:49:33.067Z,12.10
2022-10-24T20:51:59.663Z,12.15
2022-10-24T20:54:26.231Z,12.26
2022-10-24T20:56:52.801Z,12.35
2022-10-24T20:59:19.421Z,12.41
2022-10-24T21:01:46.146Z,12.47
2022-10-24T21:04:14.678Z,12.49
2022-10-24T21:06:43.759Z,12.49
2022-10-24T21:09:10.529Z,12.59
2022-10-24T21:11:38.519Z,12.60
2022-10-24T21:14:07.586Z,12.68
2022-10-24T21:16:34.929Z,12.73
2022-10-24T21:19:02.263Z,12.75
2022-10-24T21:21:29.199Z,12.72
2022-10-24T21:24:02.324Z,12.76
2022-10-24T21:26:35.042Z,12.71
2022-10-24T21:29:14.832Z,12.70
2022-10-24T21:31:51.910Z,12.67
2022-10-24T21:34:19.467Z,12.60
2022-10-24T21:36:46.464Z,12.57
2022-10-24T21:39:14.858Z,12.52
2022-10-24T21:41:41.860Z,12.42
2022-10-24T21:44:08.381Z,12.35
2022-10-24T21:46:35.141Z,12.32
2022-10-24T21:49:01.718Z,12.31
2022-10-24T21:51:30.550Z,12.33
2022-10-24T21:54:02.817Z,12.20
2022-10-24T21:56:32.231Z,12.25
2022-10-24T21:59:04.901Z,12.21
2022-10-24T22:01:34.364Z,12.23
2022-10-24T22:04:01.622Z,12.26
2022-10-24T22:06:29.876Z,12.36
2022-10-24T22:08:56.754Z,12.47
2022-10-24T22:11:25.729Z,12.67
2022-10-24T22:13:53.196Z,12.84
2022-10-24T22:16:22.627Z,12.82
2022-10-24T22:18:49.925Z,12.92
2022-10-24T22:21:24.496Z,12.97
2022-10-24T22:23:51.103Z,13.00
2022-10-24T22:26:18.011Z,13.01
2022-10-24T22:28:44.569Z,13.03
2022-10-24T22:31:13.976Z,13.04
2022-10-24T22:33:41.522Z,13.07
2022-10-24T22:36:27.171Z,13.09
2022-10-24T22:38:54.492Z,13.11
2022-10-24T22:41:22.409Z,13.12
2022-10-24T22:43:49.819Z,13.08
2022-10-24T22:46:38.005Z,13.00
2022-10-24T22:49:15.662Z,12.97
2022-10-24T22:51:42.460Z,12.99
2022-10-24T22:54:15.603Z,12.99
2022-10-24T22:56:42.696Z,13.01
2022-10-24T22:59:09.483Z,12.90
2022-10-24T23:01:53.995Z,12.83
2022-10-24T23:04:23.222Z,12.81
2022-10-24T23:07:18.400Z,12.82
2022-10-24T23:09:44.989Z,12.76
2022-10-24T23:12:16.034Z,12.75
2022-10-24T23:14:43.958Z,12.70
2022-10-24T23:17:14.115Z,12.81
2022-10-24T23:19:45.464Z,12.67
2022-10-24T23:22:23.488Z,12.75
2022-10-24T23:24:51.788Z,12.75
2022-10-24T23:27:24.293Z,12.77
2022-10-24T23:29:51.286Z,12.84
2022-10-24T23:32:25.459Z,12.84
2022-10-24T23:34:52.974Z,12.78
2022-10-24T23:37:37.303Z,12.86
2022-10-24T23:40:14.561Z,12.92
2022-10-24T23:42:41.529Z,12.99
2022-10-24T23:45:20.099Z,13.08
2022-10-24T23:47:50.020Z,12.97
2022-10-24T23:50:28.565Z,12.89
2022-10-24T23:53:23.325Z,13.00
2022-10-24T23:55:50.633Z,12.99
2022-10-24T23:58:17.731Z,12.96
